createdAt,value
2022-08-23T00:00:13.273Z,33.88
2022-08-23T00:02:43.279Z,34.67
2022-08-23T00:05:11.682Z,36.95
2022-08-23T00:07:45.558Z,37.25
2022-08-23T00:10:16.499Z,33.60
2022-08-23T00:12:47.342Z,31.85
2022-08-23T00:15:19.372Z,30.63
2022-08-23T00:17:48.120Z,30.15
2022-08-23T00:20:18.601Z,30.30
2022-08-23T00:22:47.141Z,30.05
2022-08-23T00:25:15.948Z,33.75
2022-08-23T00:27:45.068Z,32.60
2022-08-23T00:30:17.058Z,30.65
2022-08-23T00:33:10.912Z,38.53
2022-08-23T00:35:39.035Z,33.72
2022-08-23T00:38:34.387Z,30.95
2022-08-23T00:40:55.437Z,28.25
2022-08-23T00:44:08.130Z,33.15
2022-08-23T00:47:13.219Z,31.45
2022-08-23T00:50:23.656Z,29.27
2022-08-23T00:56:24.812Z,31.45
2022-08-23T00:58:59.023Z,31.05
2022-08-23T01:01:28.665Z,33.70
2022-08-23T01:04:04.535Z,34.63
2022-08-23T01:06:53.609Z,34.97
2022-08-23T01:12:32.407Z,32.07
2022-08-23T01:21:22.230Z,33.83
2022-08-23T01:23:57.273Z,38.00
2022-08-23T01:26:28.968Z,31.58
2022-08-23T01:29:22.235Z,37.15
2022-08-23T01:31:50.738Z,36.83
2022-08-23T01:34:19.301Z,39.78
2022-08-23T01:36:54.626Z,42.60
2022-08-23T01:45:55.713Z,43.50
2022-08-23T01:48:27.663Z,45.58
2022-08-23T02:32:20.891Z,66.43
2022-08-23T02:34:51.337Z,67.15
2022-08-23T02:38:04.806Z,65.50
2022-08-23T02:40:33.405Z,76.47
2022-08-23T02:43:02.108Z,81.22
2022-08-23T02:45:56.959Z,66.63
2022-08-23T02:48:51.110Z,73.90
2022-08-23T02:51:23.819Z,69.88
2022-08-23T02:53:54.283Z,69.10
2022-08-23T02:56:26.400Z,76.80
2022-08-23T02:58:55.080Z,75.63
2022-08-23T03:01:28.813Z,70.07
2022-08-23T03:04:02.595Z,66.53
2022-08-23T03:06:33.597Z,76.03
2022-08-23T03:09:05.780Z,73.93
2022-08-23T03:11:34.387Z,74.90
2022-08-23T03:14:06.649Z,59.50
2022-08-23T03:16:59.668Z,54.70
2022-08-23T03:19:27.895Z,61.65
2022-08-23T03:22:23.218Z,63.30
2022-08-23T03:24:53.343Z,77.82
2022-08-23T03:27:38.430Z,58.88
2022-08-23T03:30:19.123Z,60.00
2022-08-23T03:32:55.261Z,67.78
2022-08-23T03:35:23.596Z,64.55
2022-08-23T03:38:17.787Z,64.68
2022-08-23T03:41:11.359Z,49.03
2022-08-23T03:43:39.369Z,54.53
2022-08-23T03:46:10.533Z,59.78
2022-08-23T03:48:43.002Z,53.83
2022-08-23T03:51:12.237Z,62.78
2022-08-23T03:53:40.191Z,59.25
2022-08-23T03:56:08.063Z,57.53
2022-08-23T03:58:35.846Z,56.38
2022-08-23T04:01:03.789Z,52.88
2022-08-23T04:03:33.246Z,52.72
2022-08-23T04:06:04.639Z,53.15
2022-08-23T04:08:34.105Z,46.60
2022-08-23T04:11:05.289Z,52.40
2022-08-23T04:13:38.533Z,48.30
2022-08-23T04:16:07.395Z,45.60
2022-08-23T04:18:35.656Z,47.53
2022-08-23T04:21:10.736Z,48.35
2022-08-23T04:23:39.768Z,46.38
2022-08-23T04:26:09.646Z,43.58
2022-08-23T04:28:39.278Z,43.63
2022-08-23T04:31:07.157Z,43.45
2022-08-23T04:33:35.848Z,40.13
2022-08-23T04:36:11.243Z,44.35
2022-08-23T04:38:39.641Z,38.25
2022-08-23T04:41:27.521Z,41.85
2022-08-23T04:43:57.496Z,43.47
2022-08-23T04:46:27.211Z,40.05
2022-08-23T04:48:59.828Z,38.70
2022-08-23T04:51:31.490Z,39.05
2022-08-23T04:58:02.189Z,35.95
2022-08-23T05:00:38.011Z,38.08
2022-08-23T05:03:08.361Z,35.15
2022-08-23T05:05:42.973Z,35.97
2022-08-23T05:08:10.984Z,32.40
2022-08-23T05:10:39.034Z,37.15
2022-08-23T05:13:07.051Z,35.58
2022-08-23T05:15:34.958Z,32.30
2022-08-23T05:18:06.217Z,31.50
2022-08-23T05:20:41.331Z,34.78
2022-08-23T05:23:41.916Z,34.42
2022-08-23T05:26:18.408Z,36.05
2022-08-23T05:28:48.490Z,31.25
2022-08-23T05:31:27.912Z,29.60
2022-08-23T05:34:03.552Z,30.95
2022-08-23T05:36:47.481Z,31.67
2022-08-23T05:39:36.499Z,34.63
2022-08-23T05:45:28.632Z,29.27
2022-08-23T05:47:58.621Z,31.23
2022-08-23T05:51:22.209Z,30.50
2022-08-23T07:31:29.070Z,28.67
2022-08-23T07:34:03.024Z,29.17
2022-08-23T07:36:37.644Z,27.77
2022-08-23T07:39:07.605Z,25.80
2022-08-23T07:44:42.500Z,29.85
2022-08-23T07:47:12.953Z,25.20
2022-08-23T07:49:45.141Z,29.17
2022-08-23T07:52:14.535Z,29.92
2022-08-23T07:55:08.492Z,31.48
2022-08-23T07:57:54.378Z,26.13
2022-08-23T08:00:41.182Z,24.58
2022-08-23T08:03:29.288Z,22.70
2022-08-23T08:06:21.959Z,25.45
2022-08-23T08:08:50.584Z,27.58
2022-08-23T08:11:44.922Z,25.05
2022-08-23T08:17:33.945Z,29.05
2022-08-23T08:20:01.969Z,28.35
2022-08-23T08:22:39.284Z,27.27
2022-08-23T08:25:11.339Z,28.90
2022-08-23T08:27:42.106Z,31.02
2022-08-23T08:30:11.843Z,28.42
2022-08-23T08:32:46.916Z,30.70
2022-08-23T08:35:16.853Z,25.77
2022-08-23T08:37:48.325Z,26.48
2022-08-23T08:40:27.958Z,27.60
2022-08-23T08:43:16.756Z,31.10
2022-08-23T08:46:13.526Z,22.60
2022-08-23T08:48:47.065Z,36.38
2022-08-23T08:51:47.511Z,27.67
2022-08-23T08:54:21.265Z,25.10
2022-08-23T08:56:54.199Z,24.90
2022-08-23T08:59:43.938Z,27.85
2022-08-23T09:02:32.850Z,35.13
2022-08-23T09:05:19.649Z,27.00
2022-08-23T09:07:54.071Z,31.10
2022-08-23T09:10:43.781Z,27.30
2022-08-23T09:14:09.042Z,36.35
2022-08-23T09:16:42.957Z,26.27
2022-08-23T09:19:11.404Z,28.00
2022-08-23T09:21:43.921Z,28.23
2022-08-23T09:24:13.863Z,30.50
2022-08-23T09:27:17.867Z,27.63
2022-08-23T09:29:59.148Z,25.70
2022-08-23T09:32:39.708Z,29.95
2022-08-23T09:35:18.375Z,25.92
2022-08-23T09:38:16.747Z,29.05
2022-08-23T09:40:50.645Z,31.98
2022-08-23T09:43:48.593Z,28.90
2022-08-23T09:46:27.669Z,26.08
2022-08-23T09:48:59.273Z,25.23
2022-08-23T09:51:36.196Z,33.70
2022-08-23T09:54:19.541Z,24.20
2022-08-23T09:56:55.360Z,36.83
2022-08-23T09:59:27.321Z,29.73
2022-08-23T10:02:06.206Z,31.48
2022-08-23T10:04:47.860Z,32.35
2022-08-23T10:07:33.260Z,32.35
2022-08-23T10:10:31.313Z,28.52
2022-08-23T10:13:05.427Z,33.85
2022-08-23T10:16:10.505Z,25.08
2022-08-23T10:19:23.335Z,32.28
2022-08-23T10:21:58.497Z,30.13
2022-08-23T10:25:07.848Z,27.92
2022-08-23T10:28:03.320Z,23.98
2022-08-23T10:30:42.483Z,26.52
2022-08-23T10:33:46.946Z,27.60
2022-08-23T10:36:38.756Z,28.55
2022-08-23T10:39:16.301Z,31.35
2022-08-23T10:41:59.299Z,34.65
2022-08-23T10:45:12.593Z,30.95
2022-08-23T10:48:30.066Z,32.47
2022-08-23T10:51:01.118Z,29.33
2022-08-23T10:53:39.635Z,34.42
2022-08-23T10:56:08.419Z,25.40
2022-08-23T10:58:47.695Z,29.30
2022-08-23T11:01:32.026Z,26.85
2022-08-23T11:04:04.160Z,31.48
2022-08-23T11:06:50.171Z,27.83
2022-08-23T11:09:18.440Z,27.40
2022-08-23T11:12:05.641Z,31.88
2022-08-23T11:14:54.979Z,30.27
2022-08-23T11:17:56.223Z,37.55
2022-08-23T11:20:50.002Z,27.45
2022-08-23T11:23:52.298Z,27.95
2022-08-23T11:26:23.260Z,34.80
2022-08-23T11:28:53.151Z,34.72
2022-08-23T11:31:21.291Z,34.83
2022-08-23T11:34:07.266Z,34.28
2022-08-23T11:36:37.606Z,23.45
2022-08-23T11:39:13.073Z,31.75
2022-08-23T11:41:54.479Z,22.73
2022-08-23T11:44:53.675Z,33.75
2022-08-23T11:47:41.035Z,24.40
2022-08-23T11:50:28.595Z,26.80
2022-08-23T11:53:23.637Z,27.27
2022-08-23T11:56:16.349Z,24.90
2022-08-23T11:59:28.778Z,35.10
2022-08-23T12:01:59.723Z,33.38
2022-08-23T12:05:07.842Z,34.83
2022-08-23T12:08:00.072Z,26.88
2022-08-23T12:10:45.710Z,33.03
2022-08-23T12:13:53.535Z,33.90
2022-08-23T12:16:37.980Z,29.85
2022-08-23T12:19:40.149Z,40.85
2022-08-23T12:22:55.057Z,30.92
2022-08-23T12:25:27.871Z,36.33
2022-08-23T12:29:01.599Z,28.98
2022-08-23T12:31:52.396Z,36.53
2022-08-23T12:34:31.657Z,36.17
2022-08-23T12:37:19.555Z,30.05
2022-08-23T12:39:52.896Z,40.53
2022-08-23T12:42:37.305Z,32.08
2022-08-23T12:45:07.872Z,37.67
2022-08-23T12:47:39.726Z,32.47
2022-08-23T12:50:16.259Z,37.63
2022-08-23T12:53:02.196Z,32.90
2022-08-23T12:55:38.630Z,31.73
2022-08-23T12:58:08.072Z,41.72
2022-08-23T13:00:51.988Z,36.30
2022-08-23T13:03:25.781Z,36.72
2022-08-23T13:05:57.310Z,40.45
2022-08-23T13:08:43.291Z,27.52
2022-08-23T13:12:00.895Z,34.60
2022-08-23T13:14:34.689Z,41.15
2022-08-23T13:17:15.235Z,32.80
2022-08-23T13:22:19.895Z,42.08
2022-08-23T13:28:31.870Z,35.92
2022-08-23T13:34:35.164Z,40.38
2022-08-23T13:40:21.795Z,37.95
2022-08-23T13:43:26.190Z,40.75
2022-08-23T13:46:05.599Z,43.58
2022-08-23T13:51:45.867Z,50.50
2022-08-23T13:54:21.533Z,38.78
2022-08-23T13:57:11.283Z,45.28
2022-08-23T14:02:52.594Z,45.20
2022-08-23T14:08:17.898Z,52.85
2022-08-23T14:11:00.360Z,37.70
2022-08-23T14:13:32.263Z,45.65
2022-08-23T14:20:31.392Z,44.80
2022-08-23T14:21:53.819Z,48.40
2022-08-23T14:24:29.688Z,43.42
2022-08-23T14:26:58.447Z,49.08
2022-08-23T14:29:30.844Z,42.33
2022-08-23T14:32:06.756Z,44.17
2022-08-23T14:41:29.022Z,37.65
2022-08-23T14:54:01.456Z,46.53
2022-08-23T14:56:33.442Z,51.35
2022-08-23T14:59:01.822Z,47.35
2022-08-23T15:07:47.551Z,52.13
2022-08-23T15:16:52.679Z,50.75
2022-08-23T15:26:06.145Z,54.88
2022-08-23T15:29:06.468Z,48.80
2022-08-23T15:32:14.134Z,48.63
2022-08-23T15:34:57.003Z,49.75
2022-08-23T15:37:26.538Z,50.17
2022-08-23T15:39:54.407Z,47.65
2022-08-23T15:42:23.386Z,49.90
2022-08-23T15:44:51.625Z,53.40
2022-08-23T15:47:27.475Z,60.03
2022-08-23T15:49:58.409Z,51.42
2022-08-23T15:52:27.710Z,58.95
2022-08-23T15:54:55.941Z,61.15
2022-08-23T15:57:28.114Z,61.95
2022-08-23T15:59:57.501Z,56.28
2022-08-23T16:02:25.779Z,59.53
2022-08-23T16:04:53.906Z,56.47
2022-08-23T16:07:21.805Z,57.83
2022-08-23T16:13:24.182Z,59.38
2022-08-23T16:15:52.558Z,39.45
2022-08-23T16:18:20.426Z,33.60
2022-08-23T16:20:48.243Z,40.03
2022-08-23T16:23:18.277Z,34.92
2022-08-23T16:25:46.044Z,25.60
2022-08-23T16:28:17.010Z,28.85
2022-08-23T16:30:45.028Z,28.88
2022-08-23T16:33:24.235Z,27.75
2022-08-23T16:35:52.591Z,22.58
2022-08-23T16:38:20.570Z,25.33
2022-08-23T16:40:48.512Z,23.90
2022-08-23T16:43:16.557Z,26.15
2022-08-23T16:45:45.268Z,21.70
2022-08-23T16:48:14.957Z,26.25
2022-08-23T16:50:43.017Z,20.52
2022-08-23T16:53:11.227Z,25.38
2022-08-23T16:55:44.458Z,23.77
2022-08-23T16:58:23.312Z,25.08
2022-08-23T17:00:51.729Z,23.17
2022-08-23T17:03:20.625Z,22.17
2022-08-23T17:05:53.235Z,25.50
2022-08-23T17:08:22.515Z,26.88
2022-08-23T17:11:02.918Z,26.05
2022-08-23T17:16:02.983Z,17.88
2022-08-23T17:18:34.537Z,27.30
2022-08-23T17:21:07.818Z,33.25
2022-08-23T17:23:40.537Z,28.27
2022-08-23T17:26:10.224Z,32.40
2022-08-23T17:28:38.185Z,23.40
2022-08-23T17:31:08.089Z,25.02
2022-08-23T17:33:36.604Z,29.23
2022-08-23T17:38:57.739Z,22.77
2022-08-23T17:41:29.347Z,24.08
2022-08-23T17:44:12.647Z,26.20
2022-08-23T17:46:47.327Z,24.40
2022-08-23T17:49:16.863Z,27.80
2022-08-23T17:52:32.449Z,25.58
2022-08-23T17:55:14.131Z,28.50
2022-08-23T17:57:45.174Z,29.92
2022-08-23T18:00:15.064Z,34.92
2022-08-23T18:02:43.698Z,32.50
2022-08-23T18:05:12.140Z,30.40
2022-08-23T18:07:40.244Z,23.42
2022-08-23T18:10:12.603Z,26.50
2022-08-23T18:12:41.182Z,25.90
2022-08-23T18:15:09.959Z,27.15
2022-08-23T18:17:39.272Z,23.83
2022-08-23T18:20:15.322Z,21.52
2022-08-23T18:22:44.724Z,23.02
2022-08-23T18:25:31.914Z,26.23
2022-08-23T18:28:06.369Z,27.40
2022-08-23T18:30:48.958Z,27.70
2022-08-23T18:33:19.741Z,22.40
2022-08-23T18:36:02.395Z,20.33
2022-08-23T18:38:30.294Z,18.65
2022-08-23T18:41:04.245Z,24.95
2022-08-23T18:43:40.511Z,21.70
2022-08-23T18:46:16.071Z,21.30
2022-08-23T18:48:53.285Z,23.05
2022-08-23T18:51:25.703Z,20.08
2022-08-23T18:53:56.494Z,45.47
2022-08-23T18:56:27.118Z,20.08
2022-08-23T18:58:55.645Z,19.13
2022-08-23T19:01:29.506Z,18.50
2022-08-23T19:04:01.411Z,21.17
2022-08-23T19:06:42.665Z,19.13
2022-08-23T19:11:45.103Z,21.85
2022-08-23T19:14:14.220Z,19.63
2022-08-23T19:16:47.349Z,17.27
2022-08-23T19:19:19.021Z,15.45
2022-08-23T19:24:21.823Z,22.80
2022-08-23T19:26:49.947Z,19.50
2022-08-23T19:32:42.485Z,26.13
2022-08-23T19:35:16.105Z,18.05
2022-08-23T19:37:54.124Z,19.02
2022-08-23T19:40:22.196Z,19.10
2022-08-23T19:42:50.530Z,17.83
2022-08-23T19:45:20.303Z,16.00
2022-08-23T19:47:48.588Z,21.95
2022-08-23T19:50:23.889Z,19.70
2022-08-23T19:52:53.112Z,19.88
2022-08-23T19:55:21.806Z,19.27
2022-08-23T19:57:55.002Z,16.92
2022-08-23T20:00:56.091Z,15.57
2022-08-23T20:06:46.152Z,18.10
2022-08-23T20:09:44.610Z,21.77
2022-08-23T20:13:33.497Z,20.20
2022-08-23T20:44:10.153Z,26.08
2022-08-23T20:47:19.778Z,19.23
2022-08-23T20:49:48.654Z,17.02
2022-08-23T21:15:25.763Z,19.30
2022-08-23T21:17:54.623Z,18.23
2022-08-23T21:20:23.109Z,20.00
2022-08-23T21:22:51.300Z,19.27
2022-08-23T21:25:20.449Z,25.85
2022-08-23T21:27:48.354Z,39.30
2022-08-23T21:30:16.682Z,22.85
2022-08-23T21:32:44.630Z,21.13
2022-08-23T21:35:14.081Z,23.42
2022-08-23T21:37:41.810Z,19.23
2022-08-23T21:40:10.433Z,17.73
2022-08-23T21:42:38.884Z,24.83
2022-08-23T21:45:08.129Z,48.13
2022-08-23T21:47:39.909Z,22.65
2022-08-23T21:50:08.513Z,19.75
2022-08-23T21:52:36.750Z,24.50
2022-08-23T21:55:06.798Z,23.08
2022-08-23T21:57:37.480Z,23.90
2022-08-23T22:00:14.643Z,16.92
2022-08-23T22:02:42.736Z,19.60
2022-08-23T22:05:43.232Z,20.13
2022-08-23T22:08:14.376Z,19.77
2022-08-23T22:10:50.130Z,21.05
2022-08-23T22:13:28.943Z,24.40
2022-08-23T22:16:10.715Z,23.58
2022-08-23T22:18:38.621Z,20.35
2022-08-23T22:21:07.249Z,21.42
2022-08-23T22:23:36.685Z,22.65
2022-08-23T22:26:06.983Z,16.33
2022-08-23T22:28:36.559Z,20.40
2022-08-23T22:31:07.025Z,17.73
2022-08-23T22:33:35.396Z,21.98
2022-08-23T22:36:09.370Z,18.20
2022-08-23T22:38:38.888Z,17.10
2022-08-23T22:41:06.850Z,17.73
2022-08-23T22:43:35.482Z,16.65
2022-08-23T22:46:05.665Z,18.17
2022-08-23T22:48:35.377Z,20.75
2022-08-23T22:51:05.166Z,17.15
2022-08-23T22:53:34.417Z,19.73
2022-08-23T22:56:03.010Z,17.98
2022-08-23T22:58:31.113Z,20.42
2022-08-23T23:01:27.882Z,15.30
2022-08-23T23:03:58.261Z,18.05
2022-08-23T23:06:27.146Z,16.38
2022-08-23T23:08:56.448Z,18.15
2022-08-23T23:11:26.522Z,20.08
2022-08-23T23:13:54.555Z,26.83
2022-08-23T23:16:25.124Z,31.02
2022-08-23T23:19:12.273Z,19.50
2022-08-23T23:21:50.629Z,18.75
2022-08-23T23:24:30.853Z,17.80
2022-08-23T23:26:59.882Z,18.03
2022-08-23T23:29:29.638Z,18.48
2022-08-23T23:31:57.664Z,25.65
2022-08-23T23:34:26.814Z,15.15
2022-08-23T23:36:57.364Z,18.70
2022-08-23T23:39:26.415Z,16.90
2022-08-23T23:41:54.810Z,18.42
2022-08-23T23:44:29.911Z,18.98
2022-08-23T23:47:08.873Z,18.88
2022-08-23T23:49:37.215Z,20.67
2022-08-23T23:52:05.948Z,17.17
2022-08-23T23:54:35.875Z,19.98
2022-08-23T23:57:06.329Z,16.30
2022-08-23T23:59:34.911Z,19.77
